Time;durP1;ratioP1;P1;durP2;ratioP2;P2;SDS_P1;SDS_P2;PMS_P1;PMS_P2;Temp;Humidity;BMP_temperature;BMP_pressure;BME280_temperature;BME280_humidity;BME280_pressure;Samples;Min_cycle;Max_cycle;Signal;HPM_P1;HPM_P2
2022/04/11 00:01:27;;;;;;;0.10;0.10;;;;;;;8.50;57.53;102040.84;5033644;28;20530;-79
2022/04/11 00:03:54;;;;;;;0.20;0.20;;;;;;;8.51;56.18;102034.69;5034654;28;20024;-80
2022/04/11 00:06:20;;;;;;;0.20;0.20;;;;;;;8.48;56.96;102041.69;5035255;28;20083;-79
2022/04/11 00:08:46;;;;;;;0.10;0.10;;;;;;;8.47;56.33;102035.50;5033944;28;20037;-80
2022/04/11 00:11:12;;;;;;;0.10;0.10;;;;;;;8.44;56.75;102024.91;5032542;28;20049;-78
2022/04/11 00:13:39;;;;;;;0.05;0.05;;;;;;;8.45;56.60;102025.78;5034827;28;20041;-78
2022/04/11 00:16:07;;;;;;;0.10;0.10;;;;;;;8.43;55.87;102018.72;5034801;28;20093;-79
2022/04/11 00:18:34;;;;;;;0.10;0.10;;;;;;;8.43;55.99;102016.06;5034027;28;20032;-78
2022/04/11 00:21:00;;;;;;;0.10;0.10;;;;;;;8.43;56.68;102012.56;5031548;28;20030;-79
2022/04/11 00:23:27;;;;;;;0.10;0.10;;;;;;;8.43;57.24;102008.16;5032168;28;20435;-78
2022/04/11 00:25:53;;;;;;;0.10;0.10;;;;;;;8.41;57.24;102004.63;5034648;28;20051;-79
2022/04/11 00:28:19;;;;;;;0.10;0.10;;;;;;;8.41;55.98;102007.28;5034700;28;20479;-79
2022/04/11 00:30:45;;;;;;;0.38;0.38;;;;;;;8.40;56.79;101999.34;5031941;28;20060;-80
2022/04/11 00:33:11;;;;;;;0.10;0.10;;;;;;;8.40;56.12;102007.28;5032632;28;20033;-79
2022/04/11 00:35:37;;;;;;;0.17;0.17;;;;;;;8.40;57.00;102002.00;5032140;28;20036;-79
2022/04/11 00:38:04;;;;;;;0.17;0.17;;;;;;;8.39;57.21;102001.09;5034339;28;20033;-79
2022/04/11 00:40:30;;;;;;;0.10;0.10;;;;;;;8.40;57.09;102002.88;5033579;28;20151;-79
2022/04/11 00:42:56;;;;;;;0.10;0.10;;;;;;;8.42;57.61;101994.94;5032412;28;20038;-80
2022/04/11 00:45:22;;;;;;;0.10;0.10;;;;;;;8.43;57.03;101997.59;5034621;28;20035;-79
2022/04/11 00:47:48;;;;;;;0.10;0.10;;;;;;;8.43;57.24;102000.22;5034565;28;20046;-79
2022/04/11 00:50:16;;;;;;;0.15;0.15;;;;;;;8.44;56.97;102003.78;5032572;28;20036;-79
2022/04/11 00:52:48;;;;;;;0.22;0.22;;;;;;;8.47;56.93;102002.94;5030633;28;20056;-79
2022/04/11 00:55:19;;;;;;;0.10;0.10;;;;;;;8.44;57.50;102006.41;5033574;28;20049;-79
2022/04/11 00:57:47;;;;;;;0.00;0.00;;;;;;;8.42;57.45;101993.22;5034596;28;20037;-78
2022/04/11 01:00:13;;;;;;;0.10;0.10;;;;;;;8.42;56.81;102000.22;5033399;28;20876;-79
2022/04/11 01:02:40;;;;;;;0.73;0.40;;;;;;;8.41;57.07;101998.44;5032507;28;20080;-78
2022/04/11 01:05:08;;;;;;;0.10;0.10;;;;;;;8.40;57.01;102002.88;5033734;28;20033;-79
2022/04/11 01:07:36;;;;;;;0.17;0.17;;;;;;;8.39;57.04;101990.53;5034272;28;20036;-78
2022/04/11 01:10:04;;;;;;;0.10;0.10;;;;;;;8.37;57.42;101991.38;5032795;28;20033;-79
2022/04/11 01:12:30;;;;;;;0.10;0.10;;;;;;;8.38;57.74;101991.41;5031663;28;20384;-76
2022/04/11 01:14:56;;;;;;;0.10;0.10;;;;;;;8.39;57.00;101993.16;5033624;28;20406;-78
2022/04/11 01:17:40;;;;;;;0.10;0.10;;;;;;;8.49;57.39;101988.00;5035350;28;20415;-79
2022/04/11 01:20:10;;;;;;;0.10;0.10;;;;;;;8.41;56.90;101988.78;5033545;28;20022;-79
2022/04/11 01:22:37;;;;;;;0.10;0.10;;;;;;;8.39;56.48;101990.53;5029789;28;20390;-76
2022/04/11 01:25:04;;;;;;;0.10;0.10;;;;;;;8.39;56.66;101990.53;5031859;28;20064;-79
2022/04/11 01:27:32;;;;;;;0.10;0.10;;;;;;;8.37;56.51;101994.03;5034695;28;20045;-78
2022/04/11 01:29:59;;;;;;;0.10;0.10;;;;;;;8.35;56.42;101982.56;5032798;28;20120;-78
2022/04/11 01:32:25;;;;;;;0.10;0.10;;;;;;;8.33;56.13;101985.19;5032699;28;20037;-79
2022/04/11 01:34:51;;;;;;;0.60;0.60;;;;;;;8.31;56.62;101986.97;5034879;28;20041;-79
2022/04/11 01:37:18;;;;;;;0.10;0.10;;;;;;;8.30;56.32;101974.63;5035108;28;20033;-80
2022/04/11 01:39:44;;;;;;;0.10;0.10;;;;;;;8.27;56.49;101977.22;5032938;28;20539;-79
2022/04/11 01:42:10;;;;;;;0.10;0.10;;;;;;;8.26;56.21;101979.00;5032646;28;20029;-76
2022/04/11 01:44:37;;;;;;;0.10;0.10;;;;;;;8.26;56.59;101978.09;5034451;28;20558;-79
2022/04/11 01:47:03;;;;;;;0.10;0.10;;;;;;;8.25;56.26;101976.34;5034296;28;20040;-78
2022/04/11 01:49:29;;;;;;;0.10;0.10;;;;;;;8.23;56.82;101972.81;5033552;28;20506;-79
2022/04/11 01:51:56;;;;;;;0.10;0.10;;;;;;;8.21;56.46;101977.19;5027122;28;20064;-77
2022/04/11 01:54:22;;;;;;;0.10;0.10;;;;;;;8.19;56.54;101974.53;5031687;28;20053;-77
2022/04/11 01:56:48;;;;;;;0.10;0.10;;;;;;;8.18;56.00;101974.53;5030511;28;20563;-77
2022/04/11 01:59:16;;;;;;;0.10;0.10;;;;;;;8.15;57.25;101980.66;5030883;28;20515;-78
2022/04/11 02:01:43;;;;;;;0.10;0.10;;;;;;;8.12;56.22;101975.34;5029187;28;20029;-77
2022/04/11 02:04:09;;;;;;;0.10;0.10;;;;;;;8.08;57.12;101974.44;5028799;28;20116;-77
2022/04/11 02:06:35;;;;;;;0.10;0.10;;;;;;;8.04;56.96;101977.94;5031367;28;20041;-77
2022/04/11 02:09:02;;;;;;;0.10;0.10;;;;;;;7.99;57.32;101974.38;5031608;28;20052;-77
2022/04/11 02:11:28;;;;;;;0.10;0.10;;;;;;;7.95;57.40;101972.59;5029566;28;20108;-78
2022/04/11 02:13:54;;;;;;;0.10;0.10;;;;;;;7.92;57.23;101978.72;5030155;28;20169;-78
2022/04/11 02:16:22;;;;;;;0.10;0.10;;;;;;;7.90;56.78;101971.63;5031342;28;20112;-78
2022/04/11 02:18:48;;;;;;;0.10;0.10;;;;;;;7.84;57.40;101979.47;5032672;28;20169;-77
2022/04/11 02:21:15;;;;;;;0.10;0.10;;;;;;;7.80;57.47;101973.31;5033180;28;20049;-78
2022/04/11 02:23:41;;;;;;;0.70;0.68;;;;;;;7.76;57.01;101982.97;5029507;28;20058;-78
2022/04/11 02:26:08;;;;;;;0.10;0.10;;;;;;;7.71;57.16;101974.13;5034606;28;20033;-78
2022/04/11 02:28:34;;;;;;;0.10;0.10;;;;;;;7.68;57.26;101984.63;5034971;28;20037;-77
2022/04/11 02:31:00;;;;;;;0.10;0.10;;;;;;;7.64;57.10;101982.84;5030572;28;20033;-78
2022/04/11 02:33:26;;;;;;;0.10;0.10;;;;;;;7.61;56.46;101980.16;5034640;28;20048;-78
2022/04/11 02:35:52;;;;;;;0.10;0.10;;;;;;;7.58;56.38;101988.03;5034474;28;20029;-78
2022/04/11 02:38:19;;;;;;;0.10;0.10;;;;;;;7.53;57.00;101968.66;5035190;28;20562;-78
2022/04/11 02:40:46;;;;;;;0.10;0.10;;;;;;;7.50;56.57;101973.88;5033912;28;20048;-76
2022/04/11 02:43:12;;;;;;;0.10;0.10;;;;;;;7.47;56.84;101979.13;5034100;28;20033;-76
2022/04/11 02:45:38;;;;;;;0.10;0.10;;;;;;;7.44;56.58;101975.56;5029375;28;20112;-77
2022/04/11 02:48:05;;;;;;;0.20;0.20;;;;;;;7.42;57.12;101979.06;5035032;28;20033;-77
2022/04/11 02:50:32;;;;;;;0.10;0.10;;;;;;;7.42;57.16;101976.44;5033866;28;20037;-77
2022/04/11 02:52:58;;;;;;;0.10;0.10;;;;;;;7.41;56.46;101972.94;5033388;28;20060;-76
2022/04/11 02:55:24;;;;;;;0.68;0.68;;;;;;;7.40;56.53;101973.78;5032996;28;20402;-77
2022/04/11 02:57:50;;;;;;;0.20;0.20;;;;;;;7.39;57.02;101974.66;5033756;28;20025;-77
2022/04/11 03:00:18;;;;;;;0.10;0.10;;;;;;;7.37;56.88;101970.22;5031978;28;20483;-77
2022/04/11 03:02:44;;;;;;;0.10;0.10;;;;;;;7.35;57.25;101970.22;5032315;28;20030;-77
2022/04/11 03:05:10;;;;;;;0.10;0.10;;;;;;;7.34;57.35;101964.91;5034284;28;20499;-76
2022/04/11 03:07:36;;;;;;;0.10;0.10;;;;;;;7.33;56.66;101971.03;5034589;28;20025;-77
2022/04/11 03:10:03;;;;;;;0.10;0.10;;;;;;;7.32;57.24;101962.25;5025463;28;20391;-77
2022/04/11 03:12:33;;;;;;;0.10;0.10;;;;;;;7.32;57.00;101962.25;5031656;28;20120;-77
2022/04/11 03:14:59;;;;;;;0.20;0.20;;;;;;;7.28;57.69;101960.47;5032810;28;20033;-77
2022/04/11 03:17:25;;;;;;;0.10;0.10;;;;;;;7.28;57.80;101960.47;5034256;28;20025;-77
2022/04/11 03:19:51;;;;;;;0.10;0.10;;;;;;;7.26;57.80;101955.19;5033248;28;20037;-77
2022/04/11 03:22:17;;;;;;;0.10;0.10;;;;;;;7.25;57.50;101965.69;5029691;28;20037;-77
2022/04/11 03:24:43;;;;;;;0.20;0.20;;;;;;;7.22;57.30;101957.75;5031210;28;20047;-77
2022/04/11 03:27:09;;;;;;;0.10;0.10;;;;;;;7.20;57.67;101956.84;5033665;28;20395;-77
2022/04/11 03:29:35;;;;;;;0.10;0.10;;;;;;;7.15;57.44;101954.13;5032923;28;20041;-77
2022/04/11 03:32:02;;;;;;;0.10;0.10;;;;;;;7.13;57.32;101954.13;5030850;28;20120;-77
2022/04/11 03:34:28;;;;;;;0.10;0.10;;;;;;;7.11;57.49;101945.31;5033170;28;20037;-77
2022/04/11 03:36:54;;;;;;;0.10;0.10;;;;;;;7.08;57.93;101945.28;5029353;28;20104;-77
2022/04/11 03:39:20;;;;;;;0.10;0.10;;;;;;;7.06;57.66;101947.00;5031026;28;20104;-77
2022/04/11 03:41:46;;;;;;;0.10;0.10;;;;;;;7.04;57.76;101945.22;5032120;28;20040;-77
2022/04/11 03:44:13;;;;;;;0.10;0.10;;;;;;;7.02;57.50;101949.59;5033779;28;20037;-77
2022/04/11 03:46:39;;;;;;;0.10;0.10;;;;;;;7.00;58.17;101951.31;5031678;28;20037;-77
2022/04/11 03:49:06;;;;;;;0.10;0.10;;;;;;;6.98;57.63;101953.94;5032338;28;20030;-76
2022/04/11 03:51:33;;;;;;;0.10;0.10;;;;;;;6.95;57.87;101951.25;5032194;28;20030;-78
2022/04/11 03:53:59;;;;;;;0.10;0.10;;;;;;;6.96;57.33;101951.28;5034898;28;20045;-77
2022/04/11 03:56:25;;;;;;;0.10;0.10;;;;;;;6.95;58.28;101948.63;5034335;28;20501;-77
2022/04/11 03:58:51;;;;;;;0.10;0.10;;;;;;;6.94;58.81;101941.59;5033587;28;20048;-77
2022/04/11 04:01:17;;;;;;;0.10;0.10;;;;;;;6.93;58.76;101939.84;5033966;28;20052;-78
2022/04/11 04:03:43;;;;;;;0.28;0.28;;;;;;;6.94;58.58;101947.75;5029655;28;20022;-78
2022/04/11 04:06:11;;;;;;;0.10;0.10;;;;;;;6.94;59.16;101938.94;5032891;28;20029;-77
2022/04/11 04:08:37;;;;;;;0.10;0.10;;;;;;;6.95;59.12;101946.91;5032130;28;20025;-77
2022/04/11 04:11:04;;;;;;;0.10;0.10;;;;;;;6.98;58.75;101940.78;5033607;28;20041;-77
2022/04/11 04:13:33;;;;;;;0.10;0.10;;;;;;;6.98;58.96;101951.31;5034198;28;20033;-79
2022/04/11 04:15:59;;;;;;;0.38;0.38;;;;;;;6.98;58.74;101948.69;5034800;28;20033;-78
2022/04/11 04:18:25;;;;;;;0.10;0.10;;;;;;;6.99;59.30;101944.28;5031068;28;20037;-78
2022/04/11 04:20:53;;;;;;;0.30;0.30;;;;;;;6.98;59.51;101948.69;5032868;28;20029;-78
2022/04/11 04:23:19;;;;;;;0.10;0.10;;;;;;;6.99;58.93;101945.19;5034140;28;20449;-77
2022/04/11 04:25:45;;;;;;;0.10;0.10;;;;;;;6.99;58.63;101934.66;5034406;28;20091;-77
2022/04/11 04:28:14;;;;;;;0.10;0.10;;;;;;;6.97;59.25;101929.34;5030563;28;20471;-78
2022/04/11 04:30:40;;;;;;;0.10;0.10;;;;;;;6.95;59.14;101932.81;5032529;28;20029;-76
2022/04/11 04:33:06;;;;;;;0.10;0.10;;;;;;;6.93;58.79;101929.31;5033795;28;20032;-78
2022/04/11 04:35:32;;;;;;;0.10;0.10;;;;;;;6.92;58.83;101932.78;5033331;28;20131;-78
2022/04/11 04:37:58;;;;;;;0.10;0.10;;;;;;;6.88;59.33;101923.97;5033014;28;20033;-78
2022/04/11 04:40:24;;;;;;;0.10;0.10;;;;;;;6.87;58.97;101923.94;5032779;28;20036;-77
2022/04/11 04:42:51;;;;;;;0.40;0.40;;;;;;;6.87;58.93;101924.81;5027337;28;20093;-78
2022/04/11 04:45:18;;;;;;;0.10;0.10;;;;;;;6.87;59.07;101918.69;5034042;28;20033;-77
2022/04/11 04:47:44;;;;;;;0.10;0.10;;;;;;;6.86;59.21;101923.03;5033522;28;20036;-78
2022/04/11 04:50:10;;;;;;;0.20;0.20;;;;;;;6.87;59.32;101923.94;5028805;28;20029;-77
2022/04/11 04:52:38;;;;;;;0.25;0.25;;;;;;;6.87;59.35;101924.81;5031767;28;20513;-77
2022/04/11 04:55:05;;;;;;;0.20;0.20;;;;;;;6.86;58.98;101919.53;5033109;28;20029;-78
2022/04/11 04:57:31;;;;;;;0.10;0.10;;;;;;;6.84;59.08;101923.91;5031892;28;20490;-78
2022/04/11 04:59:57;;;;;;;0.10;0.10;;;;;;;6.83;59.07;101924.75;5031248;28;20029;-78
2022/04/11 05:02:23;;;;;;;0.10;0.10;;;;;;;6.79;58.65;101922.09;5028825;28;20025;-77
2022/04/11 05:04:49;;;;;;;0.10;0.10;;;;;;;6.75;58.90;101930.84;5033563;28;20041;-78
2022/04/11 05:07:15;;;;;;;1.23;0.73;;;;;;;6.73;59.13;101934.28;5032982;28;20069;-77
2022/04/11 05:09:41;;;;;;;0.10;0.10;;;;;;;6.70;58.92;101926.34;5031798;28;20037;-78
2022/04/11 05:12:08;;;;;;;0.28;0.28;;;;;;;6.67;59.01;101927.19;5028789;28;20036;-78
2022/04/11 05:14:34;;;;;;;0.10;0.10;;;;;;;6.64;59.53;101921.88;5032662;28;20052;-78
2022/04/11 05:17:00;;;;;;;0.25;0.25;;;;;;;6.60;59.63;101925.34;5031522;28;20048;-78
2022/04/11 05:19:26;;;;;;;0.17;0.17;;;;;;;6.60;59.04;101922.69;5033050;28;20049;-76
2022/04/11 05:21:52;;;;;;;0.22;0.22;;;;;;;6.59;59.45;101929.72;5030378;28;20100;-78
2022/04/11 05:24:18;;;;;;;0.60;0.60;;;;;;;6.59;59.28;101926.19;5036029;28;20028;-77
2022/04/11 05:26:44;;;;;;;0.10;0.10;;;;;;;6.60;59.64;101920.06;5030684;28;20499;-77
2022/04/11 05:29:10;;;;;;;0.10;0.10;;;;;;;6.61;59.78;101921.84;5039295;28;20034;-78
2022/04/11 05:31:36;;;;;;;0.10;0.10;;;;;;;6.62;59.81;101913.97;5031518;28;20076;-77
2022/04/11 05:34:05;;;;;;;0.10;0.10;;;;;;;6.64;59.73;101916.59;5032454;28;20038;-77
2022/04/11 05:36:32;;;;;;;0.20;0.20;;;;;;;6.64;59.80;101924.50;5030526;28;20030;-76
2022/04/11 05:39:01;;;;;;;0.10;0.10;;;;;;;6.67;59.83;101921.94;5029002;28;20022;-76
2022/04/11 05:41:27;;;;;;;0.60;0.60;;;;;;;6.70;59.72;101926.34;5032053;28;20121;-76
2022/04/11 05:43:53;;;;;;;0.15;0.15;;;;;;;6.74;59.50;101934.31;5028977;28;20164;-76
2022/04/11 05:46:20;;;;;;;0.10;0.10;;;;;;;6.78;59.11;101925.59;5027847;28;20112;-77
2022/04/11 05:48:46;;;;;;;0.10;0.10;;;;;;;6.83;59.10;101927.38;5029297;28;20030;-76
2022/04/11 05:51:12;;;;;;;0.30;0.30;;;;;;;6.88;59.32;101925.69;5027696;28;20037;-79
2022/04/11 05:53:38;;;;;;;0.10;0.10;;;;;;;6.92;59.52;101922.25;5030968;28;20036;-77
2022/04/11 05:56:04;;;;;;;0.10;0.10;;;;;;;6.96;59.12;101930.19;5030686;28;20487;-78
2022/04/11 05:58:30;;;;;;;0.10;0.10;;;;;;;7.01;59.10;101929.38;5032223;28;20031;-78
2022/04/11 06:00:57;;;;;;;0.10;0.10;;;;;;;7.06;59.71;101933.81;5029528;28;20025;-77
2022/04/11 06:03:23;;;;;;;0.40;0.40;;;;;;;7.10;59.71;101927.75;5030618;28;20041;-78
2022/04/11 06:05:49;;;;;;;0.10;0.10;;;;;;;7.16;59.83;101926.06;5032344;28;20515;-79
2022/04/11 06:08:15;;;;;;;0.20;0.20;;;;;;;7.20;59.07;101931.38;5034560;28;20048;-77
2022/04/11 06:10:43;;;;;;;0.10;0.10;;;;;;;7.24;59.20;101935.81;5033619;28;20178;-75
2022/04/11 06:13:09;;;;;;;0.13;0.13;;;;;;;7.28;59.36;101929.69;5034620;28;20036;-77
2022/04/11 06:15:36;;;;;;;0.68;0.68;;;;;;;7.33;58.52;101929.75;5034588;28;20026;-77
2022/04/11 06:18:02;;;;;;;0.20;0.20;;;;;;;7.36;58.94;101929.78;5035874;28;20033;-77
2022/04/11 06:20:28;;;;;;;0.45;0.45;;;;;;;7.44;58.81;101933.38;5035614;28;20033;-76
2022/04/11 06:22:54;;;;;;;0.68;0.68;;;;;;;7.53;58.71;101934.38;5024248;28;20734;-77
2022/04/11 06:25:20;;;;;;;0.10;0.10;;;;;;;7.62;58.77;101942.34;5035716;28;20057;-77
2022/04/11 06:27:46;;;;;;;0.10;0.10;;;;;;;7.73;59.04;101940.69;5035828;28;20037;-77
2022/04/11 06:30:12;;;;;;;0.10;0.10;;;;;;;7.85;58.43;101933.75;5035551;28;20402;-78
2022/04/11 06:32:38;;;;;;;0.32;0.32;;;;;;;7.94;58.60;101933.88;5059927;22;20052;-82
2022/04/11 06:35:05;;;;;;;0.20;0.20;;;;;;;8.04;58.40;101927.78;5040095;28;20041;-81
2022/04/11 06:37:31;;;;;;;0.10;0.10;;;;;;;8.13;58.39;101924.31;5043531;28;20023;-81
2022/04/11 06:39:58;;;;;;;0.10;0.10;;;;;;;8.23;57.88;101925.28;5058350;28;20025;-81
2022/04/11 06:42:24;;;;;;;7.72;1.35;;;;;;;8.32;57.52;101927.09;5047531;28;20021;-81
2022/04/11 06:44:50;;;;;;;0.10;0.10;;;;;;;8.44;57.50;101924.53;5021677;28;20033;-82
2022/04/11 06:47:18;;;;;;;0.10;0.10;;;;;;;8.53;57.35;101923.75;5026327;28;20050;-82
2022/04/11 06:49:44;;;;;;;0.10;0.10;;;;;;;8.62;57.12;101923.78;5025901;28;20030;-82
2022/04/11 06:52:10;;;;;;;0.10;0.10;;;;;;;8.68;56.38;101925.59;5025747;28;20026;-81
2022/04/11 06:54:37;;;;;;;0.10;0.10;;;;;;;8.75;56.48;101927.41;5027206;28;20038;-82
2022/04/11 06:57:03;;;;;;;0.10;0.10;;;;;;;8.81;56.61;101926.53;5024886;28;20034;-82
2022/04/11 06:59:29;;;;;;;0.10;0.10;;;;;;;8.85;56.68;101921.25;5026303;28;20041;-81
2022/04/11 07:01:55;;;;;;;0.10;0.10;;;;;;;8.90;56.30;101931.88;5026571;28;20022;-82
2022/04/11 07:04:25;;;;;;;0.30;0.30;;;;;;;8.96;56.35;101921.31;5026964;28;20037;-82
2022/04/11 07:06:51;;;;;;;0.10;0.10;;;;;;;9.00;56.47;101920.44;5025620;28;20022;-81
2022/04/11 07:09:17;;;;;;;0.10;0.10;;;;;;;9.06;55.87;101920.47;5029256;28;20030;-82
2022/04/11 07:11:43;;;;;;;0.10;0.10;;;;;;;9.12;56.26;101913.44;5031357;28;20060;-82
2022/04/11 07:14:11;;;;;;;0.30;0.30;;;;;;;9.16;56.53;101910.81;5026115;28;20038;-82
2022/04/11 07:16:37;;;;;;;0.13;0.13;;;;;;;9.23;56.50;101917.00;5023237;28;20026;-83
2022/04/11 07:19:03;;;;;;;0.10;0.10;;;;;;;9.28;56.04;101907.31;5025430;28;20026;-82
2022/04/11 07:21:30;;;;;;;0.00;0.00;;;;;;;9.37;56.01;101912.63;5024661;28;20557;-82
2022/04/11 07:23:56;;;;;;;0.10;0.10;;;;;;;9.47;56.36;101910.00;5025913;28;20030;-82
2022/04/11 07:26:22;;;;;;;0.75;0.50;;;;;;;9.55;56.44;101909.13;5025221;28;20034;-82
2022/04/11 07:28:48;;;;;;;0.20;0.20;;;;;;;9.63;56.11;101910.91;5026046;28;20180;-82
2022/04/11 07:31:15;;;;;;;0.10;0.10;;;;;;;9.70;55.82;101902.97;5018814;28;20037;-83
2022/04/11 07:33:41;;;;;;;0.10;0.10;;;;;;;9.79;56.01;101901.22;5020884;28;20379;-82
2022/04/11 07:36:07;;;;;;;0.10;0.10;;;;;;;9.91;55.48;101908.28;5021032;28;20033;-82
2022/04/11 07:38:33;;;;;;;0.20;0.20;;;;;;;10.01;55.49;101896.81;5020521;28;20038;-82
2022/04/11 07:41:00;;;;;;;0.35;0.35;;;;;;;10.11;55.66;101897.69;5023870;28;20026;-81
2022/04/11 07:43:26;;;;;;;0.10;0.10;;;;;;;10.16;55.00;101901.19;5022812;28;20065;-81
2022/04/11 07:45:52;;;;;;;0.08;0.08;;;;;;;10.26;55.00;101892.34;5019835;28;20030;-82
2022/04/11 07:48:18;;;;;;;0.17;0.17;;;;;;;10.34;54.96;101890.56;5018068;28;20030;-81
2022/04/11 07:50:44;;;;;;;0.30;0.30;;;;;;;10.48;54.81;101889.66;5016202;28;20049;-82
2022/04/11 07:53:10;;;;;;;0.40;0.40;;;;;;;10.58;54.76;101887.88;5022668;28;20109;-82
2022/04/11 07:55:36;;;;;;;0.20;0.20;;;;;;;10.68;54.51;101881.69;5022982;28;20038;-82
2022/04/11 07:58:03;;;;;;;0.38;0.38;;;;;;;10.81;54.58;101882.50;5013204;28;20044;-82
2022/04/11 08:00:29;;;;;;;0.10;0.10;;;;;;;10.90;54.49;101879.78;5018864;28;20038;-81
2022/04/11 08:02:56;;;;;;;0.10;0.10;;;;;;;11.00;54.40;101881.53;5015180;28;20386;-82
2022/04/11 08:05:24;;;;;;;0.10;0.10;;;;;;;11.10;54.49;101868.22;5015970;28;20030;-82
2022/04/11 08:07:51;;;;;;;0.10;0.10;;;;;;;11.16;54.55;101865.53;5014293;28;20025;-82
2022/04/11 08:10:18;;;;;;;0.32;0.32;;;;;;;11.25;54.33;101860.19;5018370;28;20084;-82
2022/04/11 08:13:00;;;;;;;0.10;0.10;;;;;;;11.41;54.15;101865.38;5026878;28;20033;-80
2022/04/11 08:15:28;;;;;;;0.10;0.10;;;;;;;11.42;53.72;101854.72;5023443;28;20029;-82
2022/04/11 08:17:56;;;;;;;0.00;0.00;;;;;;;11.52;53.66;101858.19;5020957;28;20113;-81
2022/04/11 08:20:23;;;;;;;0.10;0.10;;;;;;;11.61;53.88;101860.81;5024729;28;20029;-82
2022/04/11 08:22:51;;;;;;;0.13;0.13;;;;;;;11.71;52.47;101858.06;5006643;28;20033;-81
2022/04/11 08:25:17;;;;;;;0.20;0.20;;;;;;;11.82;52.30;101853.53;5025418;28;20116;-81
2022/04/11 08:27:44;;;;;;;0.30;0.30;;;;;;;11.96;52.72;101849.00;5017278;28;20048;-81
2022/04/11 08:30:12;;;;;;;0.03;0.03;;;;;;;12.02;50.80;101847.19;5020116;28;20045;-82
2022/04/11 08:32:45;;;;;;;0.30;0.30;;;;;;;12.12;49.75;101855.06;5018517;28;20478;-83
2022/04/11 08:35:12;;;;;;;0.00;0.00;;;;;;;12.21;50.63;101854.09;5025116;28;20064;-84
2022/04/11 08:37:40;;;;;;;0.10;0.10;;;;;;;12.34;51.13;101848.63;5025976;28;20481;-83
2022/04/11 08:42:44;;;;;;;0.10;0.10;;;;;;;12.52;49.80;101847.53;5077227;27;2104092;-78
2022/04/11 08:45:13;;;;;;;0.20;0.20;;;;;;;12.67;50.49;101849.13;5141434;27;20039;-77
2022/04/11 08:47:39;;;;;;;0.05;0.05;;;;;;;12.79;50.26;101843.66;5138298;27;20043;-77
2022/04/11 08:50:06;;;;;;;0.22;0.22;;;;;;;12.90;50.63;101854.16;5131842;27;20042;-77
2022/04/11 08:52:35;;;;;;;0.10;0.10;;;;;;;13.03;49.36;101852.19;5105286;27;20020;-78
2022/04/11 08:55:02;;;;;;;0.10;0.10;;;;;;;13.11;48.01;101853.84;5101460;28;20032;-78
2022/04/11 08:57:29;;;;;;;0.00;0.00;;;;;;;13.20;47.23;101852.81;5103996;28;20040;-79
2022/04/11 08:59:55;;;;;;;0.10;0.10;;;;;;;13.36;48.44;101852.59;5119115;28;20028;-79
2022/04/11 09:02:32;;;;;;;0.10;0.10;;;;;;;13.49;46.81;101846.19;5119744;28;20020;-79
2022/04/11 09:04:58;;;;;;;0.00;0.00;;;;;;;13.58;46.08;101846.06;5118055;28;20024;-76
2022/04/11 09:07:24;;;;;;;0.10;0.10;;;;;;;13.69;47.42;101837.88;5118329;28;20043;-77
2022/04/11 09:09:51;;;;;;;0.20;0.20;;;;;;;13.87;47.50;101833.16;5136031;28;20034;-77
2022/04/11 09:12:18;;;;;;;0.00;0.00;;;;;;;14.00;45.68;101825.81;5135189;27;20034;-79
2022/04/11 09:14:53;;;;;;;0.05;0.05;;;;;;;14.14;46.11;101826.41;5121507;27;20035;-79
2022/04/11 09:17:23;;;;;;;0.20;0.20;;;;;;;14.22;45.49;101824.47;5120101;28;20027;-78
2022/04/11 09:20:06;;;;;;;0.10;0.10;;;;;;;14.35;45.15;101826.91;5121075;28;20020;-78
2022/04/11 09:22:32;;;;;;;0.52;0.52;;;;;;;14.44;44.68;101813.38;5125061;27;20032;-79
2022/04/11 09:25:08;;;;;;;0.38;0.32;;;;;;;14.59;44.35;101821.97;5127350;28;20024;-78
2022/04/11 09:27:34;;;;;;;0.20;0.20;;;;;;;14.68;43.28;101811.16;5120350;28;20034;-77
2022/04/11 09:30:01;;;;;;;0.00;0.00;;;;;;;14.81;43.63;101812.63;5118816;28;20032;-76
2022/04/11 09:33:04;;;;;;;0.10;0.10;;;;;;;15.00;43.40;101804.22;5113771;28;20039;-76
2022/04/11 09:35:33;;;;;;;0.00;0.00;;;;;;;15.03;44.11;101797.00;5127582;28;20130;-77
2022/04/11 09:46:06;;;;;;;0.20;0.20;;;;;;;15.46;42.32;101802.22;5126706;27;20391;-78
2022/04/11 09:48:35;;;;;;;0.00;0.00;;;;;;;15.54;41.76;101800.25;5119578;28;20049;-78
2022/04/11 09:51:10;;;;;;;0.90;0.90;;;;;;;15.74;42.19;101794.38;5114786;28;20020;-78
2022/04/11 09:53:38;;;;;;;0.00;0.00;;;;;;;15.79;42.40;101792.47;5098387;28;20032;-78
2022/04/11 09:56:06;;;;;;;0.10;0.10;;;;;;;15.84;42.35;101795.06;5098016;28;20075;-78
2022/04/11 09:58:36;;;;;;;0.10;0.10;;;;;;;15.83;39.20;101787.94;5097273;28;20055;-79
2022/04/11 10:01:03;;;;;;;0.28;0.28;;;;;;;15.93;39.61;101777.91;5096788;28;20089;-78
2022/04/11 10:03:31;;;;;;;0.10;0.10;;;;;;;16.05;41.47;101787.34;5097081;28;20413;-78
2022/04/11 10:05:58;;;;;;;0.03;0.03;;;;;;;16.06;38.62;101778.41;5098050;28;20027;-79
2022/04/11 10:08:26;;;;;;;0.57;0.57;;;;;;;16.15;39.43;101779.03;5099677;28;20032;-78
2022/04/11 10:10:54;;;;;;;0.20;0.20;;;;;;;16.20;37.66;101776.25;5099816;28;20032;-79
2022/04/11 10:13:21;;;;;;;0.10;0.10;;;;;;;16.33;39.32;101760.69;5098564;28;20094;-77
2022/04/11 10:15:49;;;;;;;0.00;0.00;;;;;;;16.46;40.27;101775.47;5093115;28;20070;-78
2022/04/11 10:18:17;;;;;;;0.00;0.00;;;;;;;16.53;38.82;101773.47;5092387;28;20024;-77
2022/04/11 10:20:49;;;;;;;0.10;0.10;;;;;;;16.57;36.85;101780.47;5096386;28;20028;-76
2022/04/11 10:25:55;;;;;;;0.00;0.00;;;;;;;16.78;35.63;101778.09;5119882;27;20129;-77
2022/04/11 10:28:23;;;;;;;0.10;0.10;;;;;;;16.81;36.20;101778.88;5119525;28;20036;-78
2022/04/11 10:33:47;;;;;;;0.50;0.50;;;;;;;17.07;37.82;101757.56;5070039;28;20401;-79
2022/04/11 10:44:54;;;;;;;0.00;0.00;;;;;;;17.37;34.38;101750.34;5060080;28;20131;-78
2022/04/11 10:47:26;;;;;;;0.00;0.00;;;;;;;17.33;34.21;101743.31;5052280;28;20056;-79
2022/04/11 10:55:14;;;;;;;0.00;0.00;;;;;;;17.43;35.41;101734.03;5109982;27;20416;-79
2022/04/11 10:57:44;;;;;;;0.00;0.00;;;;;;;17.58;34.63;101727.28;5116833;28;20023;-77
2022/04/11 11:00:13;;;;;;;0.00;0.00;;;;;;;17.48;33.80;101717.78;5116889;28;20035;-78
2022/04/11 11:08:31;;;;;;;0.28;0.28;;;;;;;17.49;34.96;101706.16;5118399;27;20393;-82
2022/04/11 11:11:00;;;;;;;0.25;0.20;;;;;;;17.74;35.65;101706.13;5112534;28;20068;-82
2022/04/11 11:24:15;;;;;;;0.10;0.10;;;;;;;18.22;35.42;101679.41;5073437;28;20427;-79
2022/04/11 11:26:59;;;;;;;0.20;0.20;;;;;;;18.26;32.99;101676.53;5064425;28;20025;-78
2022/04/11 11:29:39;;;;;;;0.10;0.10;;;;;;;18.35;33.93;101664.56;5063260;28;20036;-77
2022/04/11 11:32:08;;;;;;;0.22;0.22;;;;;;;18.40;34.56;101662.56;5048462;28;20047;-79
2022/04/11 11:34:36;;;;;;;0.20;0.20;;;;;;;18.49;34.33;101649.72;5059677;28;20026;-77
2022/04/11 11:37:05;;;;;;;0.00;0.00;;;;;;;18.40;32.70;101651.81;5058264;28;20112;-78
2022/04/11 11:39:33;;;;;;;0.10;0.10;;;;;;;18.44;32.73;101647.22;5062909;28;20049;-78
2022/04/11 11:42:02;;;;;;;0.05;0.05;;;;;;;18.44;33.80;101641.84;5064007;28;20092;-78
2022/04/11 11:44:30;;;;;;;0.05;0.05;;;;;;;18.42;34.54;101644.59;5058307;28;20037;-79
2022/04/11 11:46:59;;;;;;;0.05;0.05;;;;;;;18.45;35.58;101643.59;5058775;28;20060;-78
2022/04/11 11:49:28;;;;;;;0.00;0.00;;;;;;;18.35;34.49;101635.03;5056735;28;20029;-78
2022/04/11 11:51:54;;;;;;;0.10;0.10;;;;;;;18.39;35.89;101634.00;5058518;28;20036;-78
2022/04/11 11:57:17;;;;;;;0.10;0.10;;;;;;;18.75;36.74;101621.81;5113308;27;20410;-77
2022/04/11 12:05:29;;;;;;;0.00;0.00;;;;;;;18.95;35.09;101612.94;5022090;28;20052;-79
2022/04/11 12:10:39;;;;;;;1.45;1.35;;;;;;;19.00;32.61;101615.44;5090206;27;20416;-78
2022/04/11 12:13:05;;;;;;;0.10;0.10;;;;;;;19.11;33.88;101612.28;5055612;28;20063;-79
2022/04/11 12:15:34;;;;;;;0.03;0.03;;;;;;;19.23;36.51;101619.81;5057616;28;20059;-79
2022/04/11 12:18:04;;;;;;;0.85;0.85;;;;;;;19.34;34.41;101617.50;5051680;28;20097;-80
2022/04/11 12:20:31;;;;;;;0.20;0.20;;;;;;;19.43;33.93;101610.84;5050678;28;20083;-79
2022/04/11 12:25:42;;;;;;;0.10;0.10;;;;;;;19.37;32.03;101598.53;5080218;28;20738;-79
2022/04/11 12:31:05;;;;;;;0.10;0.10;;;;;;;19.48;33.68;101602.59;5149252;27;20404;-79
2022/04/11 12:33:37;;;;;;;0.20;0.20;;;;;;;19.53;32.75;101600.56;5109505;28;20028;-79
2022/04/11 12:36:06;;;;;;;0.50;0.50;;;;;;;19.53;32.26;101603.25;5119924;28;20028;-79